Brunswick, Maine
Current Conditions -  °F | °C
As of 6:09 PM on Tuesday 21 Oct 2014 (Local Time) from KIWI Reporting Station
Moderate Rain Moderate Rain  
Wind Chill: 52°   Ceiling: 600
Heat Index: 52°   Visibility: 2.5mi
Dew Point: 51°   Wind: 0mph
Humidity: 97%   Direction: NA
Pressure: 30.04"   Gusts: NA
Location:  43.92°N, 69.96°W
Report Text: KIWI 212209Z AUTO 00000KT 2 1/2SM RA BR OVC006 11/11 A3004 RMK AO2 CIG 003V011 P0005 T01110106
Loading
Personal Weather Stations






























Interactive Weather Map New forecast layout! Learn more

10-Day Weather Forecast

Advertisements
Track Severe Weather on mobile